createdAt,value
2022-08-14T00:01:46.262Z,3.00
2022-08-14T00:04:35.386Z,2.45
2022-08-14T00:07:11.144Z,2.90
2022-08-14T00:09:39.978Z,2.97
2022-08-14T00:12:33.643Z,2.65
2022-08-14T00:15:43.393Z,2.80
2022-08-14T00:18:14.484Z,2.80
2022-08-14T00:20:43.388Z,3.00
2022-08-14T00:23:17.188Z,3.85
2022-08-14T00:25:53.808Z,4.50
2022-08-14T00:28:29.180Z,4.63
2022-08-14T00:31:00.191Z,4.53
2022-08-14T00:33:50.815Z,4.60
2022-08-14T00:36:35.083Z,4.10
2022-08-14T00:39:02.278Z,3.08
2022-08-14T00:41:34.070Z,3.20
2022-08-14T00:44:01.380Z,3.20
2022-08-14T00:46:32.608Z,2.80
2022-08-14T00:49:00.958Z,2.80
2022-08-14T00:51:38.020Z,3.10
2022-08-14T00:54:16.789Z,3.07
2022-08-14T00:56:50.693Z,2.67
2022-08-14T00:59:23.306Z,3.10
2022-08-14T01:01:52.686Z,3.78
2022-08-14T01:04:38.383Z,4.13
2022-08-14T01:07:10.734Z,3.80
2022-08-14T01:09:39.234Z,3.60
2022-08-14T01:12:07.829Z,4.82
2022-08-14T01:14:35.629Z,5.30
2022-08-14T01:17:04.049Z,5.30
2022-08-14T01:19:49.531Z,4.30
2022-08-14T01:22:19.197Z,4.07
2022-08-14T01:24:47.068Z,3.42
2022-08-14T01:27:19.701Z,3.13
2022-08-14T01:29:58.799Z,3.60
2022-08-14T01:32:30.459Z,4.60
2022-08-14T01:35:21.297Z,3.78
2022-08-14T01:37:56.246Z,3.80
2022-08-14T01:40:33.193Z,4.95
2022-08-14T01:43:18.615Z,3.75
2022-08-14T01:45:57.767Z,3.90
2022-08-14T01:48:37.176Z,3.70
2022-08-14T01:51:18.770Z,4.78
2022-08-14T01:53:54.719Z,5.03
2022-08-14T01:56:39.118Z,5.50
2022-08-14T01:59:06.386Z,4.80
2022-08-14T02:01:37.900Z,4.70
2022-08-14T02:04:40.449Z,3.90
2022-08-14T02:06:55.892Z,3.55
2022-08-14T02:09:22.942Z,4.03
2022-08-14T02:11:54.606Z,4.83
2022-08-14T02:14:30.940Z,5.20
2022-08-14T02:16:59.972Z,5.68
2022-08-14T02:19:32.217Z,5.45
2022-08-14T02:22:02.943Z,5.38
2022-08-14T02:24:39.858Z,4.30
2022-08-14T02:28:25.654Z,4.30
2022-08-14T02:29:59.791Z,5.18
2022-08-14T02:32:30.362Z,5.32
2022-08-14T02:35:10.186Z,5.38
2022-08-14T02:37:46.429Z,4.73
2022-08-14T02:40:18.265Z,4.60
2022-08-14T02:42:54.649Z,3.65
2022-08-14T02:45:22.377Z,3.78
2022-08-14T02:47:49.818Z,4.90
2022-08-14T02:50:26.972Z,5.30
2022-08-14T02:52:57.130Z,5.10
2022-08-14T02:55:25.002Z,3.70
2022-08-14T02:57:58.156Z,4.80
2022-08-14T03:00:32.974Z,3.88
2022-08-14T03:03:02.677Z,3.60
2022-08-14T03:05:37.149Z,4.18
2022-08-14T03:08:11.800Z,3.78
2022-08-14T03:10:48.509Z,3.92
2022-08-14T03:13:19.507Z,3.72
2022-08-14T03:15:55.084Z,3.60
2022-08-14T03:18:31.495Z,3.38
2022-08-14T03:21:05.063Z,4.03
2022-08-14T03:23:36.351Z,3.45
2022-08-14T03:26:04.974Z,4.28
2022-08-14T03:28:33.521Z,4.70
2022-08-14T03:31:00.880Z,5.43
2022-08-14T03:33:37.937Z,5.25
2022-08-14T03:37:38.433Z,4.68
2022-08-14T03:39:10.390Z,4.20
2022-08-14T03:41:43.235Z,4.33
2022-08-14T03:45:19.432Z,4.05
2022-08-14T03:46:57.016Z,4.65
2022-08-14T03:49:29.219Z,4.50
2022-08-14T03:52:00.705Z,4.78
2022-08-14T03:54:29.145Z,4.67
2022-08-14T03:57:00.773Z,4.22
2022-08-14T03:59:33.261Z,4.38
2022-08-14T04:02:04.476Z,4.20
2022-08-14T04:04:38.080Z,3.90
2022-08-14T04:07:06.338Z,3.60
2022-08-14T04:09:34.096Z,5.10
2022-08-14T04:12:02.069Z,5.28
2022-08-14T04:14:33.288Z,4.30
2022-08-14T04:17:04.809Z,4.25
2022-08-14T04:19:37.516Z,4.20
2022-08-14T04:22:04.516Z,3.90
2022-08-14T04:24:39.014Z,3.95
2022-08-14T04:27:09.642Z,3.85
2022-08-14T04:29:42.565Z,4.68
2022-08-14T04:32:58.485Z,4.07
2022-08-14T04:34:57.697Z,4.25
2022-08-14T04:37:45.245Z,4.00
2022-08-14T04:40:32.392Z,4.35
2022-08-14T04:43:18.507Z,3.92
2022-08-14T04:45:51.020Z,4.67
2022-08-14T04:48:39.505Z,4.70
2022-08-14T04:51:13.851Z,4.50
2022-08-14T04:53:43.848Z,4.10
2022-08-14T04:56:31.428Z,4.00
2022-08-14T04:59:09.685Z,3.80
2022-08-14T05:01:48.057Z,4.60
2022-08-14T05:04:20.269Z,4.13
2022-08-14T05:06:49.612Z,3.53
2022-08-14T05:09:21.583Z,4.07
2022-08-14T05:11:50.360Z,5.00
2022-08-14T05:14:45.991Z,3.95
2022-08-14T05:17:11.398Z,3.60
2022-08-14T05:19:44.207Z,3.65
2022-08-14T05:22:25.313Z,3.88
2022-08-14T05:24:54.393Z,3.50
2022-08-14T05:27:23.042Z,3.42
2022-08-14T05:29:57.143Z,3.50
2022-08-14T05:32:27.563Z,3.90
2022-08-14T05:34:58.117Z,3.97
2022-08-14T05:37:27.190Z,4.00
2022-08-14T05:39:55.154Z,3.72
2022-08-14T05:42:29.497Z,3.80
2022-08-14T05:44:59.779Z,3.75
2022-08-14T05:47:29.167Z,3.80
2022-08-14T05:50:01.873Z,3.37
2022-08-14T05:52:38.458Z,3.33
2022-08-14T05:55:09.223Z,3.35
2022-08-14T05:57:49.776Z,3.15
2022-08-14T06:00:24.425Z,3.10
2022-08-14T06:02:52.243Z,3.27
2022-08-14T06:05:23.237Z,3.70
2022-08-14T06:07:50.314Z,3.72
2022-08-14T06:10:19.059Z,3.25
2022-08-14T06:12:55.545Z,2.92
2022-08-14T06:15:29.696Z,3.27
2022-08-14T06:17:58.910Z,3.00
2022-08-14T06:20:28.526Z,3.20
2022-08-14T06:22:57.452Z,2.97
2022-08-14T06:25:26.682Z,3.10
2022-08-14T06:27:55.290Z,2.90
2022-08-14T06:30:41.861Z,3.10
2022-08-14T06:33:13.068Z,2.92
2022-08-14T06:35:43.336Z,3.00
2022-08-14T06:38:17.535Z,3.22
2022-08-14T06:40:45.899Z,3.40
2022-08-14T06:43:15.376Z,2.90
2022-08-14T06:45:50.265Z,3.00
2022-08-14T06:48:23.924Z,2.83
2022-08-14T06:50:53.098Z,3.13
2022-08-14T06:53:21.282Z,3.70
2022-08-14T06:55:57.968Z,3.60
2022-08-14T06:58:29.423Z,3.60
2022-08-14T07:01:23.182Z,3.20
2022-08-14T07:04:12.977Z,3.25
2022-08-14T07:06:51.390Z,3.00
2022-08-14T07:09:23.049Z,2.78
2022-08-14T07:11:51.749Z,3.13
2022-08-14T07:14:18.884Z,2.65
2022-08-14T07:16:45.638Z,2.72
2022-08-14T07:19:12.390Z,2.83
2022-08-14T07:21:39.615Z,2.85
2022-08-14T07:24:09.719Z,2.70
2022-08-14T07:26:48.643Z,3.00
2022-08-14T07:29:15.354Z,2.80
2022-08-14T07:31:44.633Z,2.83
2022-08-14T07:34:13.425Z,3.03
2022-08-14T07:37:01.028Z,2.60
2022-08-14T07:39:28.253Z,2.65
2022-08-14T07:41:55.089Z,2.75
2022-08-14T07:44:29.715Z,3.17
2022-08-14T07:47:04.021Z,2.90
2022-08-14T07:49:34.288Z,3.20
2022-08-14T07:52:04.983Z,2.70
2022-08-14T07:54:31.871Z,2.30
2022-08-14T07:56:59.765Z,2.40
2022-08-14T07:59:41.895Z,2.50
2022-08-14T08:02:19.722Z,2.40
2022-08-14T08:04:59.223Z,2.22
2022-08-14T08:07:30.668Z,2.30
2022-08-14T08:09:59.651Z,2.57
2022-08-14T08:12:30.894Z,2.50
2022-08-14T08:15:03.421Z,2.40
2022-08-14T08:17:42.485Z,2.45
2022-08-14T08:20:20.094Z,2.10
2022-08-14T08:22:49.994Z,2.13
2022-08-14T08:25:24.842Z,2.22
2022-08-14T08:27:57.293Z,2.20
2022-08-14T08:30:24.727Z,2.15
2022-08-14T08:32:53.354Z,2.40
2022-08-14T08:35:32.990Z,2.23
2022-08-14T08:39:18.702Z,2.70
2022-08-14T08:41:04.855Z,2.53
2022-08-14T08:43:36.936Z,2.10
2022-08-14T08:46:18.575Z,2.40
2022-08-14T08:48:53.701Z,2.63
2022-08-14T08:51:33.239Z,2.13
2022-08-14T08:54:06.716Z,2.40
2022-08-14T08:56:45.848Z,2.60
2022-08-14T08:59:21.401Z,1.92
2022-08-14T09:01:57.610Z,2.60
2022-08-14T09:04:26.371Z,2.15
2022-08-14T09:07:00.784Z,1.90
2022-08-14T09:09:59.348Z,2.17
2022-08-14T09:12:32.138Z,2.35
2022-08-14T09:15:12.326Z,2.30
2022-08-14T09:17:42.700Z,1.85
2022-08-14T09:20:12.522Z,2.00
2022-08-14T09:22:48.313Z,2.20
2022-08-14T09:25:19.864Z,2.10
2022-08-14T09:28:06.330Z,2.37
2022-08-14T09:30:36.479Z,1.92
2022-08-14T09:33:27.742Z,2.10
2022-08-14T09:36:24.466Z,2.00
2022-08-14T09:39:21.401Z,2.10
2022-08-14T09:42:20.280Z,2.60
2022-08-14T09:45:15.283Z,2.40
2022-08-14T09:48:01.641Z,2.03
2022-08-14T09:50:29.983Z,1.98
2022-08-14T09:53:11.075Z,1.80
2022-08-14T09:55:45.488Z,2.10
2022-08-14T09:58:22.557Z,2.30
2022-08-14T10:01:01.870Z,2.35
2022-08-14T10:03:35.529Z,2.30
2022-08-14T10:06:20.501Z,2.30
2022-08-14T10:09:11.982Z,2.10
2022-08-14T10:11:58.721Z,2.38
2022-08-14T10:14:36.093Z,2.17
2022-08-14T10:17:06.984Z,1.90
2022-08-14T10:19:46.973Z,2.10
2022-08-14T10:23:15.251Z,2.00
2022-08-14T10:25:11.817Z,1.95
2022-08-14T10:27:38.788Z,1.98
2022-08-14T10:30:13.434Z,2.10
2022-08-14T10:32:51.589Z,2.30
2022-08-14T10:35:22.461Z,2.20
2022-08-14T10:37:53.268Z,2.60
2022-08-14T10:40:38.604Z,2.45
2022-08-14T10:43:23.224Z,2.30
2022-08-14T10:46:03.998Z,2.50
2022-08-14T10:49:00.858Z,2.70
2022-08-14T10:51:34.138Z,2.40
2022-08-14T10:54:16.890Z,2.50
2022-08-14T10:57:18.672Z,2.35
2022-08-14T10:59:50.370Z,2.30
2022-08-14T11:02:22.319Z,2.20
2022-08-14T11:05:09.047Z,1.90
2022-08-14T11:07:39.647Z,1.98
2022-08-14T11:10:13.635Z,1.80
2022-08-14T11:12:40.770Z,1.80
2022-08-14T11:15:08.308Z,1.80
2022-08-14T11:17:36.199Z,1.83
2022-08-14T11:20:13.747Z,2.45
2022-08-14T11:22:52.730Z,1.88
2022-08-14T11:25:43.930Z,2.13
2022-08-14T11:28:19.469Z,2.20
2022-08-14T11:30:53.881Z,2.20
2022-08-14T11:33:29.385Z,2.15
2022-08-14T11:36:00.347Z,2.50
2022-08-14T11:38:37.852Z,1.92
2022-08-14T11:41:06.096Z,2.10
2022-08-14T11:43:56.252Z,2.80
2022-08-14T11:46:30.574Z,2.80
2022-08-14T11:49:05.337Z,2.60
2022-08-14T11:51:36.103Z,2.30
2022-08-14T11:54:19.874Z,2.60
2022-08-14T11:56:50.611Z,2.40
2022-08-14T11:59:19.668Z,2.47
2022-08-14T12:01:53.251Z,2.55
2022-08-14T12:04:31.675Z,2.78
2022-08-14T12:07:01.476Z,2.40
2022-08-14T12:09:36.820Z,2.33
2022-08-14T12:12:35.305Z,2.30
2022-08-14T12:15:06.837Z,2.63
2022-08-14T12:17:47.474Z,2.15
2022-08-14T12:20:29.985Z,2.47
2022-08-14T12:23:02.096Z,2.50
2022-08-14T12:25:29.538Z,2.65
2022-08-14T12:28:01.504Z,2.50
2022-08-14T12:30:39.861Z,2.50
2022-08-14T12:33:30.509Z,2.40
2022-08-14T12:36:00.577Z,2.20
2022-08-14T12:38:38.320Z,2.40
2022-08-14T12:41:21.137Z,2.50
2022-08-14T12:43:56.774Z,2.10
2022-08-14T12:46:28.499Z,2.57
2022-08-14T12:48:57.973Z,2.42
2022-08-14T12:51:27.500Z,2.25
2022-08-14T12:53:59.537Z,2.60
2022-08-14T12:56:33.023Z,2.40
2022-08-14T12:59:00.532Z,2.63
2022-08-14T13:01:56.562Z,2.42
2022-08-14T13:04:18.770Z,2.70
2022-08-14T13:06:50.867Z,2.63
2022-08-14T13:09:19.130Z,2.58
2022-08-14T13:11:58.482Z,2.60
2022-08-14T13:14:38.732Z,2.55
2022-08-14T13:17:07.204Z,2.53
2022-08-14T13:19:35.828Z,2.30
2022-08-14T13:22:10.165Z,2.53
2022-08-14T13:24:47.695Z,2.40
2022-08-14T13:27:14.861Z,2.60
2022-08-14T13:29:47.436Z,2.33
2022-08-14T13:32:16.154Z,2.08
2022-08-14T13:34:45.568Z,2.55
2022-08-14T13:37:15.481Z,2.10
2022-08-14T13:39:56.778Z,2.70
2022-08-14T13:42:30.201Z,2.40
2022-08-14T13:45:01.336Z,2.50
2022-08-14T13:47:30.856Z,2.60
2022-08-14T13:50:02.907Z,2.47
2022-08-14T13:52:55.132Z,2.47
2022-08-14T13:55:28.083Z,2.30
2022-08-14T13:58:03.426Z,2.33
2022-08-14T14:00:53.621Z,2.40
2022-08-14T14:03:23.220Z,2.50
2022-08-14T14:05:54.227Z,2.40
2022-08-14T14:08:43.397Z,2.63
2022-08-14T14:11:11.242Z,2.78
2022-08-14T14:13:44.656Z,3.10
2022-08-14T14:16:14.982Z,2.97
2022-08-14T14:18:55.830Z,2.88
2022-08-14T14:21:28.599Z,2.85
2022-08-14T14:23:56.327Z,2.97
2022-08-14T14:26:24.674Z,2.92
2022-08-14T14:28:55.360Z,3.33
2022-08-14T14:31:30.062Z,3.35
2022-08-14T14:34:07.791Z,3.40
2022-08-14T14:36:49.946Z,3.60
2022-08-14T14:39:21.266Z,3.90
2022-08-14T14:41:56.030Z,3.20
2022-08-14T14:44:32.063Z,3.70
2022-08-14T14:46:59.339Z,3.65
2022-08-14T14:49:41.691Z,3.42
2022-08-14T14:52:26.647Z,3.85
2022-08-14T14:54:57.598Z,4.17
2022-08-14T14:57:34.883Z,3.53
2022-08-14T15:00:08.653Z,3.20
2022-08-14T15:02:42.700Z,3.40
2022-08-14T15:05:11.532Z,3.50
2022-08-14T15:07:40.243Z,4.00
2022-08-14T15:10:27.964Z,4.22
2022-08-14T15:13:00.065Z,3.72
2022-08-14T15:15:27.366Z,3.58
2022-08-14T15:17:54.806Z,4.07
2022-08-14T15:20:29.708Z,4.10
2022-08-14T15:23:01.012Z,3.97
2022-08-14T15:25:43.753Z,4.20
2022-08-14T15:28:21.550Z,4.13
2022-08-14T15:30:57.707Z,4.28
2022-08-14T15:34:33.173Z,4.20
2022-08-14T15:36:31.383Z,4.15
2022-08-14T15:38:59.060Z,4.22
2022-08-14T15:41:26.808Z,4.40
2022-08-14T15:44:01.582Z,4.10
2022-08-14T15:46:43.345Z,3.43
2022-08-14T15:49:12.618Z,3.35
2022-08-14T15:51:42.321Z,3.80
2022-08-14T15:54:11.504Z,4.00
2022-08-14T15:56:42.743Z,3.65
2022-08-14T15:59:10.469Z,3.73
2022-08-14T16:01:53.657Z,4.15
2022-08-14T16:04:23.953Z,3.47
2022-08-14T16:06:55.567Z,3.65
2022-08-14T16:09:23.151Z,3.60
2022-08-14T16:11:53.924Z,4.43
2022-08-14T16:14:22.001Z,4.30
2022-08-14T16:16:59.731Z,4.03
2022-08-14T16:19:31.436Z,3.60
2022-08-14T16:22:58.838Z,3.42
2022-08-14T16:25:02.176Z,3.77
2022-08-14T16:27:39.022Z,4.00
2022-08-14T16:30:24.920Z,4.35
2022-08-14T16:32:56.605Z,3.45
2022-08-14T16:35:42.923Z,3.97
2022-08-14T16:38:47.756Z,4.37
2022-08-14T16:41:23.359Z,4.70
2022-08-14T16:43:53.745Z,4.20
2022-08-14T16:46:26.975Z,3.97
2022-08-14T16:48:58.075Z,4.65
2022-08-14T16:51:29.447Z,4.47
2022-08-14T16:53:59.087Z,4.90
2022-08-14T16:56:30.940Z,4.50
2022-08-14T16:59:12.191Z,4.05
2022-08-14T17:01:41.831Z,4.35
2022-08-14T17:04:14.874Z,4.40
2022-08-14T17:06:54.979Z,4.93
2022-08-14T17:09:50.246Z,4.65
2022-08-14T17:12:34.029Z,4.15
2022-08-14T17:15:09.887Z,3.90
2022-08-14T17:17:40.195Z,3.70
2022-08-14T17:20:53.266Z,3.38
2022-08-14T17:23:11.155Z,3.40
2022-08-14T17:25:38.331Z,3.30
2022-08-14T17:28:51.445Z,3.33
2022-08-14T17:31:00.290Z,3.00
2022-08-14T17:33:40.629Z,2.85
2022-08-14T17:36:24.177Z,2.70
2022-08-14T17:39:06.718Z,2.20
2022-08-14T17:41:38.629Z,2.65
2022-08-14T17:44:20.208Z,2.90
2022-08-14T17:46:57.186Z,2.42
2022-08-14T17:49:27.059Z,1.98
2022-08-14T17:52:17.231Z,2.30
2022-08-14T17:54:52.879Z,1.90
2022-08-14T17:57:28.508Z,2.20
2022-08-14T17:59:57.041Z,2.22
2022-08-14T18:02:31.490Z,2.10
2022-08-14T18:05:03.429Z,2.65
2022-08-14T18:08:00.241Z,2.53
2022-08-14T18:10:54.862Z,2.10
2022-08-14T18:13:07.968Z,2.20
2022-08-14T18:15:41.348Z,2.50
2022-08-14T18:18:11.290Z,2.42
2022-08-14T18:21:41.042Z,2.40
2022-08-14T18:23:28.194Z,2.10
2022-08-14T18:25:57.095Z,2.50
2022-08-14T18:28:48.079Z,2.45
2022-08-14T18:31:21.575Z,2.40
2022-08-14T18:33:54.554Z,2.30
2022-08-14T18:36:46.657Z,2.43
2022-08-14T18:39:32.835Z,2.30
2022-08-14T18:42:23.749Z,2.10
2022-08-14T18:44:51.207Z,2.03
2022-08-14T18:47:22.388Z,2.40
2022-08-14T18:49:53.129Z,2.30
2022-08-14T18:52:33.408Z,2.70
2022-08-14T18:55:20.822Z,2.40
2022-08-14T18:57:54.692Z,2.22
2022-08-14T19:00:33.687Z,2.20
2022-08-14T19:03:07.971Z,2.00
2022-08-14T19:05:37.379Z,1.85
2022-08-14T19:08:24.969Z,1.90
2022-08-14T19:11:01.636Z,1.85
2022-08-14T19:13:44.597Z,2.10
2022-08-14T19:16:18.478Z,2.50
2022-08-14T19:19:00.425Z,2.40
2022-08-14T19:21:38.394Z,2.40
2022-08-14T19:24:27.245Z,2.15
2022-08-14T19:27:16.687Z,2.60
2022-08-14T19:29:47.951Z,2.50
2022-08-14T19:32:39.478Z,2.35
2022-08-14T19:35:19.333Z,2.13
2022-08-14T19:37:52.546Z,2.20
2022-08-14T19:40:35.250Z,2.40
2022-08-14T19:43:06.346Z,2.30
2022-08-14T19:45:34.222Z,3.05
2022-08-14T19:48:03.754Z,2.35
2022-08-14T19:50:38.124Z,2.80
2022-08-14T19:53:12.035Z,3.20
2022-08-14T19:55:57.223Z,2.60
2022-08-14T19:58:55.173Z,2.65
2022-08-14T20:01:36.953Z,2.55
2022-08-14T20:04:46.807Z,2.70
2022-08-14T20:07:01.415Z,2.55
2022-08-14T20:11:11.171Z,2.80
2022-08-14T20:12:34.665Z,3.25
2022-08-14T20:15:15.404Z,2.60
2022-08-14T20:17:53.661Z,2.42
2022-08-14T20:20:31.890Z,2.60
2022-08-14T20:23:10.925Z,2.60
2022-08-14T20:25:45.358Z,2.92
2022-08-14T20:28:32.499Z,2.55
2022-08-14T20:31:15.925Z,2.38
2022-08-14T20:34:03.465Z,2.70
2022-08-14T20:36:30.819Z,2.80
2022-08-14T20:38:58.317Z,2.78
2022-08-14T20:41:25.530Z,2.70
2022-08-14T20:44:11.848Z,2.63
2022-08-14T20:46:39.530Z,3.08
2022-08-14T20:49:16.069Z,2.80
2022-08-14T20:51:54.718Z,2.42
2022-08-14T20:54:34.025Z,2.30
2022-08-14T20:57:11.958Z,2.28
2022-08-14T20:59:43.923Z,2.85
2022-08-14T21:02:29.652Z,2.93
2022-08-14T21:05:16.489Z,2.83
2022-08-14T21:07:51.389Z,2.47
2022-08-14T21:10:36.373Z,2.72
2022-08-14T21:13:27.601Z,2.22
2022-08-14T21:16:04.081Z,2.40
2022-08-14T21:18:47.331Z,2.00
2022-08-14T21:21:19.175Z,2.30
2022-08-14T21:23:54.148Z,2.25
2022-08-14T21:26:50.484Z,2.10
2022-08-14T21:29:19.024Z,2.20
2022-08-14T21:31:55.725Z,2.03
2022-08-14T21:34:31.109Z,2.30
2022-08-14T21:37:07.855Z,2.20
2022-08-14T21:39:36.090Z,2.15
2022-08-14T21:42:05.845Z,2.20
2022-08-14T21:44:36.206Z,2.40
2022-08-14T21:47:10.344Z,2.22
2022-08-14T21:49:38.495Z,2.30
2022-08-14T21:52:50.282Z,2.20
2022-08-14T21:54:59.479Z,2.60
2022-08-14T21:57:56.237Z,2.90
2022-08-14T22:00:35.055Z,2.30
2022-08-14T22:03:10.083Z,2.38
2022-08-14T22:05:39.259Z,2.10
2022-08-14T22:08:07.362Z,2.60
2022-08-14T22:10:35.237Z,2.50
2022-08-14T22:13:02.254Z,2.10
2022-08-14T22:15:32.647Z,2.30
2022-08-14T22:18:00.141Z,2.30
2022-08-14T22:20:29.928Z,2.70
2022-08-14T22:22:58.864Z,3.10
2022-08-14T22:25:34.071Z,3.00
2022-08-14T22:28:05.566Z,2.70
2022-08-14T22:30:34.035Z,2.28
2022-08-14T22:33:01.656Z,2.20
2022-08-14T22:35:29.685Z,2.50
2022-08-14T22:38:34.879Z,2.25
2022-08-14T22:41:20.532Z,2.60
2022-08-14T22:43:35.106Z,2.30
2022-08-14T22:46:06.272Z,2.90
2022-08-14T22:48:43.079Z,3.40
2022-08-14T22:51:14.985Z,2.95
2022-08-14T22:53:43.968Z,3.00
2022-08-14T22:56:20.161Z,3.10
2022-08-14T22:58:53.767Z,3.37
2022-08-14T23:01:56.157Z,3.10
2022-08-14T23:04:35.016Z,3.03
2022-08-14T23:07:21.758Z,3.17
2022-08-14T23:09:56.423Z,3.13
2022-08-14T23:12:28.313Z,2.70
2022-08-14T23:14:56.838Z,2.92
2022-08-14T23:17:23.938Z,2.80
2022-08-14T23:19:56.109Z,3.30
2022-08-14T23:22:26.338Z,3.10
2022-08-14T23:24:58.037Z,2.70
2022-08-14T23:27:31.981Z,2.90
2022-08-14T23:30:31.590Z,3.03
2022-08-14T23:33:03.184Z,2.53
2022-08-14T23:35:33.145Z,2.45
2022-08-14T23:38:01.899Z,3.10
2022-08-14T23:40:30.555Z,3.20
2022-08-14T23:42:57.935Z,3.63
2022-08-14T23:45:37.024Z,3.65
2022-08-14T23:48:05.439Z,4.35
2022-08-14T23:50:38.522Z,3.67
2022-08-14T23:53:28.291Z,3.15
2022-08-14T23:56:14.147Z,2.88
2022-08-14T23:58:42.228Z,3.10
